createdAt,value
2019-03-27T00:02:03.002Z,8.00
2019-03-27T00:04:34.301Z,8.00
2019-03-27T00:07:05.614Z,8.00
2019-03-27T00:09:37.489Z,8.00
2019-03-27T00:12:08.741Z,8.00
2019-03-27T00:14:40.202Z,7.90
2019-03-27T00:17:11.417Z,8.10
2019-03-27T00:19:43.158Z,7.90
2019-03-27T00:22:14.661Z,7.90
2019-03-27T00:24:45.878Z,7.60
2019-03-27T00:27:17.171Z,7.70
2019-03-27T00:29:48.363Z,7.80
2019-03-27T00:32:19.564Z,7.70
2019-03-27T00:34:51.385Z,7.50
2019-03-27T00:37:22.612Z,7.70
2019-03-27T00:39:54.100Z,7.40
2019-03-27T00:42:25.492Z,7.40
2019-03-27T00:44:57.292Z,7.50
2019-03-27T00:47:28.445Z,7.70
2019-03-27T00:49:59.599Z,7.80
2019-03-27T00:52:30.709Z,7.40
2019-03-27T00:55:02.039Z,7.60
2019-03-27T00:57:33.194Z,7.60
2019-03-27T01:00:05.099Z,7.50
2019-03-27T01:02:36.346Z,7.30
2019-03-27T01:05:07.704Z,7.20
2019-03-27T01:07:39.130Z,7.20
2019-03-27T01:10:10.637Z,7.20
2019-03-27T01:12:41.953Z,7.20
2019-03-27T01:15:13.355Z,7.20
2019-03-27T01:17:44.499Z,7.20
2019-03-27T01:20:17.058Z,7.10
2019-03-27T01:22:48.527Z,7.10
2019-03-27T01:25:19.635Z,7.00
2019-03-27T01:27:51.144Z,6.90
2019-03-27T01:30:22.285Z,6.80
2019-03-27T01:32:54.044Z,6.80
2019-03-27T01:35:25.523Z,6.70
2019-03-27T01:37:56.814Z,6.60
2019-03-27T01:40:28.051Z,6.50
2019-03-27T01:42:59.458Z,6.50
2019-03-27T01:45:30.704Z,6.60
2019-03-27T01:48:01.856Z,6.60
2019-03-27T01:50:33.116Z,6.50
2019-03-27T01:53:04.291Z,6.40
2019-03-27T01:55:35.782Z,6.30
2019-03-27T01:58:07.225Z,6.30
2019-03-27T02:00:38.505Z,6.10
2019-03-27T02:03:10.517Z,6.10
2019-03-27T02:05:42.531Z,6.00
2019-03-27T02:08:13.850Z,5.80
2019-03-27T02:10:45.096Z,5.70
2019-03-27T02:13:16.465Z,5.70
2019-03-27T02:15:47.647Z,5.60
2019-03-27T02:18:18.914Z,5.70
2019-03-27T02:20:50.189Z,5.70
2019-03-27T02:23:21.367Z,5.70
2019-03-27T02:25:52.746Z,5.70
2019-03-27T02:28:23.864Z,5.70
2019-03-27T02:30:55.141Z,5.60
2019-03-27T02:33:26.481Z,5.60
2019-03-27T02:35:58.016Z,5.50
2019-03-27T02:38:29.121Z,5.40
2019-03-27T02:41:00.627Z,5.30
2019-03-27T02:43:31.935Z,5.20
2019-03-27T02:46:03.133Z,5.20
2019-03-27T02:48:34.271Z,5.00
2019-03-27T02:51:05.737Z,4.90
2019-03-27T02:53:37.354Z,4.90
2019-03-27T02:56:08.943Z,4.90
2019-03-27T02:58:40.303Z,4.90
2019-03-27T03:01:11.593Z,4.90
2019-03-27T03:03:42.741Z,4.70
2019-03-27T03:06:13.984Z,4.70
2019-03-27T03:08:45.224Z,4.70
2019-03-27T03:11:16.487Z,4.60
2019-03-27T03:13:47.825Z,4.60
2019-03-27T03:16:18.981Z,4.50
2019-03-27T03:18:50.234Z,4.50
2019-03-27T03:21:21.792Z,4.50
2019-03-27T03:23:53.254Z,4.40
2019-03-27T03:26:24.376Z,4.40
2019-03-27T03:28:55.482Z,4.30
2019-03-27T03:31:26.677Z,4.30
2019-03-27T03:33:58.080Z,4.30
2019-03-27T03:36:29.400Z,4.20
2019-03-27T03:39:00.557Z,4.10
2019-03-27T03:41:31.847Z,4.10
2019-03-27T03:44:03.118Z,4.10
2019-03-27T03:46:34.301Z,4.10
2019-03-27T03:49:05.660Z,4.00
2019-03-27T03:51:36.994Z,4.10
2019-03-27T03:54:14.854Z,4.00
2019-03-27T03:56:47.100Z,4.10
2019-03-27T03:59:20.483Z,4.10
2019-03-27T04:01:55.322Z,4.00
2019-03-27T04:04:26.648Z,4.00
2019-03-27T04:06:58.020Z,4.00
2019-03-27T04:09:29.391Z,4.00
2019-03-27T04:12:00.938Z,3.90
2019-03-27T04:14:32.107Z,3.80
2019-03-27T04:17:16.202Z,3.90
2019-03-27T04:19:36.579Z,3.90
2019-03-27T04:22:08.040Z,3.90
2019-03-27T04:24:39.354Z,3.80
2019-03-27T04:27:10.692Z,3.70
2019-03-27T04:29:41.967Z,3.70
2019-03-27T04:32:13.356Z,3.70
2019-03-27T04:34:47.211Z,3.70
2019-03-27T04:37:17.554Z,3.60
2019-03-27T04:39:48.836Z,3.60
2019-03-27T04:42:20.038Z,3.60
2019-03-27T04:44:51.178Z,3.50
2019-03-27T04:47:31.938Z,3.50
2019-03-27T04:49:55.592Z,3.50
2019-03-27T04:52:26.922Z,3.50
2019-03-27T04:54:58.210Z,3.40
2019-03-27T04:57:29.427Z,3.40
2019-03-27T05:00:00.780Z,3.40
2019-03-27T05:02:32.032Z,3.50
2019-03-27T05:05:04.469Z,3.40
2019-03-27T05:07:35.789Z,3.30
2019-03-27T05:10:07.398Z,3.30
2019-03-27T05:12:39.009Z,3.30
2019-03-27T05:15:10.383Z,3.30
2019-03-27T05:17:46.160Z,3.40
2019-03-27T05:20:14.580Z,3.40
2019-03-27T05:22:45.696Z,3.50
2019-03-27T05:25:16.906Z,3.50
2019-03-27T05:27:48.373Z,3.50
2019-03-27T05:30:28.843Z,3.40
2019-03-27T05:33:00.159Z,3.40
2019-03-27T05:35:31.445Z,3.50
2019-03-27T05:38:03.517Z,3.50
2019-03-27T05:40:34.751Z,3.60
2019-03-27T05:43:06.324Z,3.60
2019-03-27T05:45:37.565Z,3.70
2019-03-27T05:48:08.925Z,3.70
2019-03-27T05:50:40.274Z,3.80
2019-03-27T05:53:11.462Z,4.00
2019-03-27T05:55:43.346Z,4.20
2019-03-27T05:58:14.644Z,4.40
2019-03-27T06:00:45.950Z,4.60
2019-03-27T06:03:17.495Z,4.80
2019-03-27T06:05:48.812Z,5.00
2019-03-27T06:08:20.256Z,5.00
2019-03-27T06:10:51.613Z,5.10
2019-03-27T06:13:22.957Z,5.30
2019-03-27T06:15:55.542Z,5.50
2019-03-27T06:18:26.919Z,5.80
2019-03-27T06:20:58.080Z,5.90
2019-03-27T06:23:42.931Z,6.20
2019-03-27T06:26:33.769Z,6.30
2019-03-27T06:29:07.710Z,6.50
2019-03-27T06:31:38.929Z,6.60
2019-03-27T06:34:10.200Z,6.80
2019-03-27T06:36:41.904Z,7.10
2019-03-27T06:39:13.160Z,7.20
2019-03-27T06:41:44.485Z,7.30
2019-03-27T06:44:15.703Z,7.30
2019-03-27T06:46:47.019Z,7.40
2019-03-27T06:49:18.211Z,7.70
2019-03-27T06:51:49.529Z,7.90
2019-03-27T06:54:21.090Z,8.10
2019-03-27T06:56:52.350Z,8.30
2019-03-27T06:59:25.222Z,8.40
2019-03-27T07:01:57.547Z,8.60
2019-03-27T07:04:28.718Z,8.70
2019-03-27T07:06:59.993Z,8.80
2019-03-27T07:09:31.085Z,8.70
2019-03-27T07:12:02.239Z,8.90
2019-03-27T07:14:34.358Z,8.50
2019-03-27T07:17:05.747Z,8.60
2019-03-27T07:19:37.010Z,8.90
2019-03-27T07:22:08.508Z,9.10
2019-03-27T07:24:39.736Z,8.80
2019-03-27T07:27:11.468Z,8.50
2019-03-27T07:29:42.576Z,8.70
2019-03-27T07:32:14.163Z,9.10
2019-03-27T07:34:45.450Z,9.40
2019-03-27T07:37:16.532Z,9.70
2019-03-27T07:39:47.566Z,9.70
2019-03-27T07:42:19.060Z,9.80
2019-03-27T07:44:50.323Z,9.60
2019-03-27T07:47:22.303Z,9.60
2019-03-27T07:49:53.566Z,9.60
2019-03-27T07:52:24.890Z,9.90
2019-03-27T07:54:56.057Z,10.50
2019-03-27T07:57:27.534Z,10.60
2019-03-27T07:59:58.806Z,10.90
2019-03-27T08:02:30.307Z,10.90
2019-03-27T08:05:01.547Z,10.90
2019-03-27T08:07:32.842Z,10.80
2019-03-27T08:10:04.358Z,10.90
2019-03-27T08:12:35.694Z,11.20
2019-03-27T08:15:08.151Z,11.30
2019-03-27T08:17:39.384Z,11.40
2019-03-27T08:20:12.994Z,11.70
2019-03-27T08:22:44.182Z,11.50
2019-03-27T08:25:16.572Z,11.50
2019-03-27T08:27:47.782Z,11.50
2019-03-27T08:30:19.445Z,11.30
2019-03-27T08:32:50.688Z,10.90
2019-03-27T08:35:22.243Z,11.00
2019-03-27T08:37:53.530Z,10.80
2019-03-27T08:40:24.707Z,10.60
2019-03-27T08:42:55.917Z,10.40
2019-03-27T08:45:27.527Z,10.50
2019-03-27T08:47:58.807Z,10.20
2019-03-27T08:50:30.830Z,10.00
2019-03-27T08:53:02.154Z,10.30
2019-03-27T08:55:33.208Z,10.30
2019-03-27T08:58:04.560Z,10.00
2019-03-27T09:00:52.781Z,10.10
2019-03-27T09:03:24.344Z,10.20
2019-03-27T09:05:55.851Z,10.20
2019-03-27T09:08:27.083Z,10.10
2019-03-27T09:10:58.294Z,10.40
2019-03-27T09:13:29.775Z,10.60
2019-03-27T09:16:01.079Z,10.70
2019-03-27T09:18:32.727Z,10.50
2019-03-27T09:21:03.987Z,10.60
2019-03-27T09:23:35.867Z,10.70
2019-03-27T09:26:07.204Z,10.40
2019-03-27T09:28:38.904Z,10.40
2019-03-27T09:31:10.404Z,10.90
2019-03-27T09:33:41.651Z,11.30
2019-03-27T09:36:12.828Z,11.80
2019-03-27T09:38:43.985Z,12.20
2019-03-27T09:41:15.308Z,11.70
2019-03-27T09:43:46.434Z,11.40
2019-03-27T09:46:17.742Z,11.30
2019-03-27T09:48:48.911Z,11.30
2019-03-27T09:51:20.064Z,11.00
2019-03-27T09:53:53.169Z,11.10
2019-03-27T09:56:24.163Z,11.10
2019-03-27T09:58:55.419Z,10.60
2019-03-27T10:01:26.617Z,10.50
2019-03-27T10:03:57.886Z,10.60
2019-03-27T10:06:29.466Z,10.70
2019-03-27T10:09:00.784Z,10.90
2019-03-27T10:11:32.086Z,11.00
2019-03-27T10:14:03.302Z,11.10
2019-03-27T10:16:34.654Z,11.10
2019-03-27T10:19:05.830Z,11.10
2019-03-27T10:21:37.135Z,11.10
2019-03-27T10:24:08.337Z,10.90
2019-03-27T10:26:42.500Z,11.00
2019-03-27T10:29:12.489Z,10.90
2019-03-27T10:31:43.704Z,11.00
2019-03-27T10:34:15.052Z,11.10
2019-03-27T10:36:46.247Z,11.30
2019-03-27T10:39:17.493Z,11.20
2019-03-27T10:41:48.721Z,11.40
2019-03-27T10:44:20.010Z,11.50
2019-03-27T10:46:51.216Z,11.50
2019-03-27T10:49:22.502Z,11.40
2019-03-27T10:51:53.790Z,11.60
2019-03-27T10:54:25.131Z,11.30
2019-03-27T10:56:56.443Z,11.40
2019-03-27T10:59:27.667Z,11.30
2019-03-27T11:01:58.970Z,11.20
2019-03-27T11:04:30.109Z,11.10
2019-03-27T11:07:01.318Z,11.10
2019-03-27T11:09:32.654Z,11.00
2019-03-27T11:12:04.262Z,11.00
2019-03-27T11:14:38.197Z,11.20
2019-03-27T11:17:08.807Z,11.10
2019-03-27T11:19:39.978Z,11.50
2019-03-27T11:22:11.237Z,11.60
2019-03-27T11:24:42.937Z,11.60
2019-03-27T11:27:14.222Z,11.60
2019-03-27T11:29:45.641Z,11.60
2019-03-27T11:32:16.904Z,11.60
2019-03-27T11:34:48.084Z,11.80
2019-03-27T11:37:19.361Z,11.70
2019-03-27T11:39:50.501Z,11.80
2019-03-27T11:42:21.809Z,11.80
2019-03-27T11:44:53.048Z,11.60
2019-03-27T11:47:24.335Z,11.90
2019-03-27T11:49:55.493Z,12.30
2019-03-27T11:52:29.528Z,12.40
2019-03-27T11:54:59.651Z,12.30
2019-03-27T11:57:30.845Z,12.00
2019-03-27T12:00:02.105Z,11.90
2019-03-27T12:02:33.181Z,12.00
2019-03-27T12:05:04.532Z,12.10
2019-03-27T12:07:35.758Z,12.20
2019-03-27T12:10:08.641Z,12.40
2019-03-27T12:12:39.858Z,12.30
2019-03-27T12:15:11.331Z,12.40
2019-03-27T12:17:42.645Z,12.00
2019-03-27T12:20:14.124Z,12.10
2019-03-27T12:22:57.216Z,12.10
2019-03-27T12:25:18.337Z,12.30
2019-03-27T12:27:49.983Z,12.30
2019-03-27T12:30:21.221Z,12.30
2019-03-27T12:32:52.462Z,12.30
2019-03-27T12:35:23.806Z,12.10
2019-03-27T12:37:55.414Z,12.20
2019-03-27T12:40:27.000Z,12.30
2019-03-27T12:42:58.643Z,12.20
2019-03-27T12:45:29.889Z,12.30
2019-03-27T12:48:01.116Z,12.60
2019-03-27T12:50:32.483Z,12.50
2019-03-27T12:53:03.674Z,12.30
2019-03-27T12:55:34.888Z,12.10
2019-03-27T12:58:06.534Z,12.00
2019-03-27T13:00:38.176Z,12.10
2019-03-27T13:03:09.452Z,12.30
2019-03-27T13:05:40.703Z,12.30
2019-03-27T13:08:11.816Z,12.40
2019-03-27T13:10:43.155Z,12.50
2019-03-27T13:13:14.583Z,12.50
2019-03-27T13:15:46.121Z,12.20
2019-03-27T13:18:17.382Z,12.10
2019-03-27T13:20:48.599Z,12.10
2019-03-27T13:23:19.850Z,12.30
2019-03-27T13:25:50.965Z,12.30
2019-03-27T13:28:22.237Z,12.20
2019-03-27T13:30:53.357Z,11.70
2019-03-27T13:33:24.500Z,11.80
2019-03-27T13:35:55.619Z,12.20
2019-03-27T13:38:26.833Z,12.30
2019-03-27T13:40:58.034Z,12.10
2019-03-27T13:43:29.302Z,11.90
2019-03-27T13:46:00.698Z,12.20
2019-03-27T13:48:31.914Z,12.20
2019-03-27T13:51:03.158Z,12.20
2019-03-27T13:53:34.348Z,11.80
2019-03-27T13:56:05.788Z,12.10
2019-03-27T13:58:37.019Z,12.20
2019-03-27T14:01:09.070Z,12.30
2019-03-27T14:03:40.754Z,12.60
2019-03-27T14:06:11.871Z,12.50
2019-03-27T14:08:43.139Z,12.50
2019-03-27T14:11:14.650Z,12.70
2019-03-27T14:13:45.849Z,12.80
2019-03-27T14:16:17.106Z,12.80
2019-03-27T14:18:49.106Z,13.00
2019-03-27T14:21:23.162Z,12.80
2019-03-27T14:23:53.528Z,12.90
2019-03-27T14:26:24.679Z,12.90
2019-03-27T14:28:55.878Z,12.60
2019-03-27T14:31:27.153Z,12.30
2019-03-27T14:33:58.644Z,12.40
2019-03-27T14:36:29.874Z,12.50
2019-03-27T14:39:01.135Z,12.60
2019-03-27T14:41:32.334Z,12.40
2019-03-27T14:44:03.567Z,12.50
2019-03-27T14:46:35.356Z,12.50
2019-03-27T14:49:06.780Z,12.50
2019-03-27T14:51:37.933Z,12.20
2019-03-27T14:54:09.277Z,12.30
2019-03-27T14:56:40.745Z,12.20
2019-03-27T14:59:11.996Z,12.30
2019-03-27T15:01:43.099Z,12.10
2019-03-27T15:04:14.310Z,12.20
2019-03-27T15:06:45.423Z,12.20
2019-03-27T15:09:16.527Z,12.30
2019-03-27T15:11:47.654Z,12.40
2019-03-27T15:14:18.919Z,12.50
2019-03-27T15:16:49.996Z,12.50
2019-03-27T15:19:21.295Z,12.50
2019-03-27T15:21:52.484Z,12.60
2019-03-27T15:24:23.694Z,12.50
2019-03-27T15:26:55.236Z,12.40
2019-03-27T15:29:27.021Z,12.40
2019-03-27T15:31:58.242Z,12.30
2019-03-27T15:34:30.132Z,12.40
2019-03-27T15:37:01.529Z,12.30
2019-03-27T15:39:32.724Z,12.40
2019-03-27T15:42:03.902Z,12.60
2019-03-27T15:44:35.097Z,12.50
2019-03-27T15:47:06.559Z,12.50
2019-03-27T15:49:37.780Z,12.50
2019-03-27T15:52:09.436Z,12.50
2019-03-27T15:54:41.125Z,12.60
2019-03-27T15:57:12.733Z,12.50
2019-03-27T15:59:44.013Z,12.60
2019-03-27T16:02:15.871Z,12.50
2019-03-27T16:04:47.300Z,12.60
2019-03-27T16:07:18.523Z,12.80
2019-03-27T16:09:49.762Z,12.70
2019-03-27T16:12:21.225Z,12.50
2019-03-27T16:14:52.597Z,12.40
2019-03-27T16:17:25.221Z,12.40
2019-03-27T16:19:56.755Z,12.40
2019-03-27T16:22:27.848Z,12.40
2019-03-27T16:24:59.428Z,12.40
2019-03-27T16:27:30.767Z,12.40
2019-03-27T16:30:01.965Z,12.40
2019-03-27T16:32:33.102Z,12.40
2019-03-27T16:35:04.384Z,12.30
2019-03-27T16:37:35.684Z,12.30
2019-03-27T16:40:09.436Z,12.30
2019-03-27T16:42:39.308Z,12.20
2019-03-27T16:45:11.027Z,12.20
2019-03-27T16:47:42.421Z,12.30
2019-03-27T16:50:13.856Z,12.40
2019-03-27T16:52:45.084Z,12.50
2019-03-27T16:55:16.336Z,12.50
2019-03-27T16:57:51.197Z,12.40
2019-03-27T17:00:21.203Z,12.30
2019-03-27T17:02:52.326Z,12.30
2019-03-27T17:05:23.647Z,12.30
2019-03-27T17:07:54.969Z,12.20
2019-03-27T17:10:26.309Z,12.20
2019-03-27T17:12:57.444Z,12.10
2019-03-27T17:15:28.550Z,12.00
2019-03-27T17:18:00.156Z,11.90
2019-03-27T17:20:31.373Z,11.80
2019-03-27T17:23:02.657Z,11.70
2019-03-27T17:25:33.849Z,11.60
2019-03-27T17:28:05.309Z,11.60
2019-03-27T17:30:36.760Z,11.50
2019-03-27T17:33:08.054Z,11.40
2019-03-27T17:35:39.311Z,11.30
2019-03-27T17:38:11.097Z,11.30
2019-03-27T17:40:42.565Z,11.20
2019-03-27T17:43:13.775Z,11.10
2019-03-27T17:45:45.267Z,11.00
2019-03-27T17:48:16.834Z,10.90
2019-03-27T17:50:48.112Z,10.80
2019-03-27T17:53:30.998Z,10.70
2019-03-27T17:55:52.537Z,10.70
2019-03-27T17:58:23.716Z,10.60
2019-03-27T18:00:58.036Z,10.50
2019-03-27T18:03:29.395Z,10.50
2019-03-27T18:06:00.579Z,10.40
2019-03-27T18:08:31.734Z,10.30
2019-03-27T18:11:03.142Z,10.20
2019-03-27T18:13:34.421Z,10.20
2019-03-27T18:16:05.812Z,10.10
2019-03-27T18:18:36.967Z,10.10
2019-03-27T18:21:08.201Z,10.00
2019-03-27T18:23:45.895Z,9.90
2019-03-27T18:26:12.242Z,9.80
2019-03-27T18:28:43.351Z,9.80
2019-03-27T18:31:14.599Z,9.70
2019-03-27T18:33:45.674Z,9.60
2019-03-27T18:36:17.188Z,9.70
2019-03-27T18:38:48.374Z,9.70
2019-03-27T18:41:19.609Z,9.70
2019-03-27T18:43:50.799Z,9.70
2019-03-27T18:46:22.115Z,9.60
2019-03-27T18:48:53.336Z,9.60
2019-03-27T18:51:24.491Z,9.60
2019-03-27T18:53:59.952Z,9.50
2019-03-27T18:56:28.727Z,9.50
2019-03-27T18:58:59.906Z,9.50
2019-03-27T19:01:31.090Z,9.40
2019-03-27T19:04:02.319Z,9.30
2019-03-27T19:06:33.562Z,9.20
2019-03-27T19:09:06.812Z,9.30
2019-03-27T19:11:38.048Z,9.30
2019-03-27T19:14:09.312Z,9.20
2019-03-27T19:16:40.663Z,9.10
2019-03-27T19:19:11.906Z,9.10
2019-03-27T19:21:43.132Z,9.10
2019-03-27T19:24:16.820Z,9.00
2019-03-27T19:26:47.586Z,8.90
2019-03-27T19:29:18.735Z,8.90
2019-03-27T19:31:49.935Z,8.80
2019-03-27T19:34:21.216Z,8.70
2019-03-27T19:36:52.484Z,8.60
2019-03-27T19:39:23.701Z,8.50
2019-03-27T19:41:54.853Z,8.40
2019-03-27T19:44:26.153Z,8.30
2019-03-27T19:46:57.628Z,8.30
2019-03-27T19:49:28.880Z,8.30
2019-03-27T19:52:00.085Z,8.30
2019-03-27T19:54:31.350Z,8.20
2019-03-27T19:57:02.469Z,8.10
2019-03-27T19:59:33.697Z,8.20
2019-03-27T20:02:04.992Z,8.10
2019-03-27T20:04:36.132Z,8.00
2019-03-27T20:07:07.365Z,8.00
2019-03-27T20:09:38.559Z,7.90
2019-03-27T20:12:09.757Z,7.90
2019-03-27T20:14:42.483Z,7.90
2019-03-27T20:17:14.052Z,7.90
2019-03-27T20:19:45.176Z,7.80
2019-03-27T20:22:16.362Z,7.80
2019-03-27T20:24:47.758Z,7.80
2019-03-27T20:27:19.128Z,7.80
2019-03-27T20:29:50.458Z,7.90
2019-03-27T20:32:21.792Z,7.90
2019-03-27T20:34:53.356Z,7.90
2019-03-27T20:37:24.485Z,7.90
2019-03-27T20:39:55.618Z,7.80
2019-03-27T20:42:26.954Z,7.70
2019-03-27T20:44:58.191Z,7.60
2019-03-27T20:47:29.399Z,7.50
2019-03-27T20:50:00.618Z,7.50
2019-03-27T20:52:31.923Z,7.40
2019-03-27T20:55:03.480Z,7.30
2019-03-27T20:57:38.129Z,7.30
2019-03-27T21:00:12.481Z,7.30
2019-03-27T21:02:46.970Z,7.30
2019-03-27T21:05:18.201Z,7.20
2019-03-27T21:07:49.457Z,7.10
2019-03-27T21:10:21.069Z,7.00
2019-03-27T21:12:52.303Z,7.00
2019-03-27T21:15:23.571Z,6.90
2019-03-27T21:17:54.869Z,6.90
2019-03-27T21:20:26.162Z,6.90
2019-03-27T21:22:57.241Z,6.90
2019-03-27T21:25:28.409Z,7.00
2019-03-27T21:28:00.152Z,6.90
2019-03-27T21:30:31.672Z,6.90
2019-03-27T21:33:02.959Z,6.80
2019-03-27T21:35:34.096Z,6.80
2019-03-27T21:38:05.458Z,6.80
2019-03-27T21:40:36.673Z,6.80
2019-03-27T21:43:07.800Z,6.80
2019-03-27T21:45:39.127Z,6.80
2019-03-27T21:48:10.242Z,6.80
2019-03-27T21:50:41.367Z,6.70
2019-03-27T21:53:12.550Z,6.60
2019-03-27T21:55:43.842Z,6.60
2019-03-27T21:58:15.054Z,6.60
2019-03-27T22:00:46.205Z,6.60
2019-03-27T22:03:17.690Z,6.50
2019-03-27T22:05:48.926Z,6.50
2019-03-27T22:08:20.108Z,6.50
2019-03-27T22:10:51.366Z,6.50
2019-03-27T22:13:22.594Z,6.50
2019-03-27T22:15:53.700Z,6.60
2019-03-27T22:18:24.983Z,6.60
2019-03-27T22:20:56.323Z,6.50
2019-03-27T22:23:27.821Z,6.40
2019-03-27T22:25:59.004Z,6.30
2019-03-27T22:28:30.201Z,6.20
2019-03-27T22:31:01.418Z,6.20
2019-03-27T22:33:32.747Z,6.20
2019-03-27T22:36:04.403Z,6.30
2019-03-27T22:38:35.771Z,6.40
2019-03-27T22:41:06.975Z,6.40
2019-03-27T22:43:38.139Z,6.40
2019-03-27T22:46:09.408Z,6.40
2019-03-27T22:48:40.511Z,6.40
2019-03-27T22:51:12.505Z,6.20
2019-03-27T22:53:43.939Z,6.20
2019-03-27T22:56:15.279Z,6.10
2019-03-27T22:58:46.569Z,6.00
2019-03-27T23:01:18.399Z,6.00
2019-03-27T23:03:50.023Z,6.00
2019-03-27T23:06:21.166Z,6.10
2019-03-27T23:08:52.598Z,6.10
2019-03-27T23:11:23.975Z,6.10
2019-03-27T23:13:55.143Z,6.00
2019-03-27T23:16:26.373Z,5.90
2019-03-27T23:18:57.614Z,5.80
2019-03-27T23:21:28.899Z,5.70
2019-03-27T23:24:00.178Z,5.70
2019-03-27T23:26:31.816Z,5.70
2019-03-27T23:29:03.374Z,5.80
2019-03-27T23:31:34.600Z,5.80
2019-03-27T23:34:05.883Z,5.70
2019-03-27T23:36:37.609Z,5.70
2019-03-27T23:39:10.130Z,5.70
2019-03-27T23:41:41.320Z,5.70
2019-03-27T23:44:12.568Z,5.70
2019-03-27T23:46:43.875Z,5.60
2019-03-27T23:49:15.183Z,5.50
2019-03-27T23:51:46.428Z,5.40
2019-03-27T23:54:17.735Z,5.40
2019-03-27T23:56:48.967Z,5.40
2019-03-27T23:59:20.607Z,5.40
